sensor_id;sensor_type;location;lat;lon;timestamp;P1;durP1;ratioP1;P2;durP2;ratioP2
21301;SDS011;10810;48.270;9.996;2023-02-20T00:02:00;3.47;;;1.63;;
21301;SDS011;10810;48.270;9.996;2023-02-20T00:04:43;2.70;;;1.30;;
21301;SDS011;10810;48.270;9.996;2023-02-20T00:07:28;3.83;;;1.40;;
21301;SDS011;10810;48.270;9.996;2023-02-20T00:10:03;4.57;;;1.57;;
21301;SDS011;10810;48.270;9.996;2023-02-20T00:12:33;2.70;;;1.30;;
21301;SDS011;10810;48.270;9.996;2023-02-20T00:15:02;4.70;;;1.53;;
21301;SDS011;10810;48.270;9.996;2023-02-20T00:17:42;3.77;;;1.70;;
21301;SDS011;10810;48.270;9.996;2023-02-20T00:20:19;2.77;;;1.40;;
21301;SDS011;10810;48.270;9.996;2023-02-20T00:22:51;3.67;;;1.60;;
21301;SDS011;10810;48.270;9.996;2023-02-20T00:25:18;4.83;;;1.80;;
21301;SDS011;10810;48.270;9.996;2023-02-20T00:27:46;3.33;;;1.70;;
21301;SDS011;10810;48.270;9.996;2023-02-20T00:30:17;2.20;;;1.40;;
21301;SDS011;10810;48.270;9.996;2023-02-20T00:33:10;4.43;;;1.90;;
21301;SDS011;10810;48.270;9.996;2023-02-20T00:36:05;3.33;;;1.43;;
21301;SDS011;10810;48.270;9.996;2023-02-20T00:38:34;4.20;;;1.60;;
21301;SDS011;10810;48.270;9.996;2023-02-20T00:41:02;4.70;;;1.90;;
21301;SDS011;10810;48.270;9.996;2023-02-20T00:43:34;3.20;;;1.40;;
21301;SDS011;10810;48.270;9.996;2023-02-20T00:46:11;3.30;;;1.40;;
21301;SDS011;10810;48.270;9.996;2023-02-20T00:48:40;4.60;;;1.57;;
21301;SDS011;10810;48.270;9.996;2023-02-20T00:51:46;3.67;;;1.50;;
21301;SDS011;10810;48.270;9.996;2023-02-20T00:54:16;2.87;;;1.57;;
21301;SDS011;10810;48.270;9.996;2023-02-20T00:56:54;2.37;;;1.40;;
21301;SDS011;10810;48.270;9.996;2023-02-20T00:59:35;5.27;;;1.47;;
21301;SDS011;10810;48.270;9.996;2023-02-20T01:02:30;3.83;;;1.73;;
21301;SDS011;10810;48.270;9.996;2023-02-20T01:05:03;4.43;;;1.47;;
21301;SDS011;10810;48.270;9.996;2023-02-20T01:07:37;2.93;;;1.20;;
21301;SDS011;10810;48.270;9.996;2023-02-20T01:10:36;5.20;;;1.73;;
21301;SDS011;10810;48.270;9.996;2023-02-20T01:13:19;4.60;;;1.37;;
21301;SDS011;10810;48.270;9.996;2023-02-20T01:16:03;6.07;;;1.73;;
21301;SDS011;10810;48.270;9.996;2023-02-20T01:21:18;1.90;;;1.20;;
21301;SDS011;10810;48.270;9.996;2023-02-20T01:23:50;3.63;;;1.57;;
21301;SDS011;10810;48.270;9.996;2023-02-20T01:26:24;3.10;;;1.53;;
21301;SDS011;10810;48.270;9.996;2023-02-20T01:28:53;3.07;;;1.40;;
21301;SDS011;10810;48.270;9.996;2023-02-20T01:31:23;3.20;;;1.60;;
21301;SDS011;10810;48.270;9.996;2023-02-20T01:34:03;2.27;;;1.40;;
21301;SDS011;10810;48.270;9.996;2023-02-20T01:36:46;4.87;;;1.43;;
21301;SDS011;10810;48.270;9.996;2023-02-20T01:39:16;3.77;;;1.70;;
21301;SDS011;10810;48.270;9.996;2023-02-20T01:41:45;3.40;;;1.40;;
21301;SDS011;10810;48.270;9.996;2023-02-20T01:44:40;3.67;;;1.50;;
21301;SDS011;10810;48.270;9.996;2023-02-20T01:47:14;2.87;;;1.50;;
21301;SDS011;10810;48.270;9.996;2023-02-20T01:52:53;3.90;;;1.60;;
21301;SDS011;10810;48.270;9.996;2023-02-20T01:56:03;5.67;;;1.60;;
21301;SDS011;10810;48.270;9.996;2023-02-20T01:58:38;7.50;;;1.90;;
21301;SDS011;10810;48.270;9.996;2023-02-20T02:01:09;5.13;;;1.70;;
21301;SDS011;10810;48.270;9.996;2023-02-20T02:03:56;5.43;;;1.57;;
21301;SDS011;10810;48.270;9.996;2023-02-20T02:06:29;3.50;;;1.40;;
21301;SDS011;10810;48.270;9.996;2023-02-20T02:09:12;4.20;;;1.60;;
21301;SDS011;10810;48.270;9.996;2023-02-20T02:12:19;4.67;;;1.60;;
21301;SDS011;10810;48.270;9.996;2023-02-20T02:14:52;2.80;;;1.67;;
21301;SDS011;10810;48.270;9.996;2023-02-20T02:24:10;5.17;;;1.50;;
21301;SDS011;10810;48.270;9.996;2023-02-20T02:27:04;4.23;;;1.60;;
21301;SDS011;10810;48.270;9.996;2023-02-20T02:30:01;6.37;;;1.63;;
21301;SDS011;10810;48.270;9.996;2023-02-20T02:33:03;4.53;;;1.57;;
21301;SDS011;10810;48.270;9.996;2023-02-20T02:38:45;4.70;;;1.73;;
21301;SDS011;10810;48.270;9.996;2023-02-20T02:41:21;3.00;;;1.40;;
21301;SDS011;10810;48.270;9.996;2023-02-20T02:43:56;6.70;;;1.93;;
21301;SDS011;10810;48.270;9.996;2023-02-20T02:46:46;2.57;;;1.27;;
21301;SDS011;10810;48.270;9.996;2023-02-20T02:49:19;3.73;;;1.53;;
21301;SDS011;10810;48.270;9.996;2023-02-20T02:51:57;2.90;;;1.60;;
21301;SDS011;10810;48.270;9.996;2023-02-20T02:54:27;4.33;;;1.57;;
21301;SDS011;10810;48.270;9.996;2023-02-20T03:00:02;5.17;;;1.63;;
21301;SDS011;10810;48.270;9.996;2023-02-20T03:02:43;4.50;;;1.60;;
21301;SDS011;10810;48.270;9.996;2023-02-20T03:05:26;4.43;;;1.63;;
21301;SDS011;10810;48.270;9.996;2023-02-20T03:08:05;2.77;;;1.60;;
21301;SDS011;10810;48.270;9.996;2023-02-20T03:10:53;3.67;;;1.50;;
21301;SDS011;10810;48.270;9.996;2023-02-20T03:13:43;2.80;;;1.43;;
21301;SDS011;10810;48.270;9.996;2023-02-20T03:16:34;2.73;;;1.50;;
21301;SDS011;10810;48.270;9.996;2023-02-20T03:19:06;4.17;;;1.70;;
21301;SDS011;10810;48.270;9.996;2023-02-20T03:21:40;3.30;;;1.60;;
21301;SDS011;10810;48.270;9.996;2023-02-20T03:27:21;4.73;;;1.80;;
21301;SDS011;10810;48.270;9.996;2023-02-20T03:30:06;4.70;;;2.00;;
21301;SDS011;10810;48.270;9.996;2023-02-20T03:32:52;8.03;;;1.53;;
21301;SDS011;10810;48.270;9.996;2023-02-20T03:35:54;4.17;;;1.40;;
21301;SDS011;10810;48.270;9.996;2023-02-20T03:38:43;2.80;;;1.50;;
21301;SDS011;10810;48.270;9.996;2023-02-20T03:41:35;3.93;;;2.00;;
21301;SDS011;10810;48.270;9.996;2023-02-20T03:44:22;3.90;;;1.67;;
21301;SDS011;10810;48.270;9.996;2023-02-20T03:46:50;6.93;;;1.73;;
21301;SDS011;10810;48.270;9.996;2023-02-20T03:49:20;3.30;;;1.60;;
21301;SDS011;10810;48.270;9.996;2023-02-20T03:51:52;5.40;;;1.80;;
21301;SDS011;10810;48.270;9.996;2023-02-20T03:54:25;5.93;;;1.63;;
21301;SDS011;10810;48.270;9.996;2023-02-20T03:57:27;4.37;;;1.60;;
21301;SDS011;10810;48.270;9.996;2023-02-20T04:00:08;4.17;;;1.50;;
21301;SDS011;10810;48.270;9.996;2023-02-20T04:02:52;8.53;;;2.07;;
21301;SDS011;10810;48.270;9.996;2023-02-20T04:05:42;5.77;;;1.77;;
21301;SDS011;10810;48.270;9.996;2023-02-20T04:08:21;4.83;;;1.60;;
21301;SDS011;10810;48.270;9.996;2023-02-20T04:10:56;2.10;;;1.40;;
21301;SDS011;10810;48.270;9.996;2023-02-20T04:14:05;4.43;;;1.80;;
21301;SDS011;10810;48.270;9.996;2023-02-20T04:16:59;5.17;;;1.40;;
21301;SDS011;10810;48.270;9.996;2023-02-20T04:19:39;4.83;;;1.80;;
21301;SDS011;10810;48.270;9.996;2023-02-20T04:22:21;3.50;;;1.67;;
21301;SDS011;10810;48.270;9.996;2023-02-20T04:24:54;4.70;;;1.33;;
21301;SDS011;10810;48.270;9.996;2023-02-20T04:27:30;3.93;;;1.73;;
21301;SDS011;10810;48.270;9.996;2023-02-20T04:32:48;7.80;;;1.50;;
21301;SDS011;10810;48.270;9.996;2023-02-20T04:35:21;6.50;;;1.50;;
21301;SDS011;10810;48.270;9.996;2023-02-20T04:37:54;6.67;;;1.60;;
21301;SDS011;10810;48.270;9.996;2023-02-20T04:40:23;6.30;;;1.60;;
21301;SDS011;10810;48.270;9.996;2023-02-20T04:44:39;4.07;;;1.73;;
21301;SDS011;10810;48.270;9.996;2023-02-20T04:45:50;4.77;;;1.73;;
21301;SDS011;10810;48.270;9.996;2023-02-20T04:48:33;3.83;;;1.40;;
21301;SDS011;10810;48.270;9.996;2023-02-20T04:51:08;3.37;;;1.40;;
21301;SDS011;10810;48.270;9.996;2023-02-20T04:54:04;2.97;;;1.50;;
21301;SDS011;10810;48.270;9.996;2023-02-20T04:56:31;2.97;;;1.40;;
21301;SDS011;10810;48.270;9.996;2023-02-20T04:59:13;3.10;;;1.50;;
21301;SDS011;10810;48.270;9.996;2023-02-20T05:01:45;4.20;;;1.47;;
21301;SDS011;10810;48.270;9.996;2023-02-20T05:04:43;2.80;;;1.13;;
21301;SDS011;10810;48.270;9.996;2023-02-20T05:07:22;3.37;;;1.70;;
21301;SDS011;10810;48.270;9.996;2023-02-20T05:09:57;2.93;;;1.33;;
21301;SDS011;10810;48.270;9.996;2023-02-20T05:12:34;3.33;;;1.53;;
21301;SDS011;10810;48.270;9.996;2023-02-20T05:15:02;3.37;;;1.60;;
21301;SDS011;10810;48.270;9.996;2023-02-20T05:17:34;2.90;;;1.40;;
21301;SDS011;10810;48.270;9.996;2023-02-20T05:20:24;2.40;;;1.37;;
21301;SDS011;10810;48.270;9.996;2023-02-20T05:23:11;2.13;;;1.23;;
21301;SDS011;10810;48.270;9.996;2023-02-20T05:25:39;3.03;;;1.67;;
21301;SDS011;10810;48.270;9.996;2023-02-20T05:28:10;3.13;;;1.50;;
21301;SDS011;10810;48.270;9.996;2023-02-20T05:30:55;4.13;;;1.60;;
21301;SDS011;10810;48.270;9.996;2023-02-20T05:33:44;2.97;;;1.43;;
21301;SDS011;10810;48.270;9.996;2023-02-20T05:36:15;2.33;;;1.37;;
21301;SDS011;10810;48.270;9.996;2023-02-20T05:38:43;4.63;;;2.00;;
21301;SDS011;10810;48.270;9.996;2023-02-20T05:41:13;3.10;;;1.33;;
21301;SDS011;10810;48.270;9.996;2023-02-20T05:43:43;3.40;;;1.30;;
21301;SDS011;10810;48.270;9.996;2023-02-20T05:46:37;5.93;;;2.07;;
21301;SDS011;10810;48.270;9.996;2023-02-20T05:49:09;4.30;;;1.50;;
21301;SDS011;10810;48.270;9.996;2023-02-20T05:51:37;4.93;;;1.73;;
21301;SDS011;10810;48.270;9.996;2023-02-20T05:54:23;3.97;;;1.60;;
21301;SDS011;10810;48.270;9.996;2023-02-20T05:57:19;5.37;;;2.00;;
21301;SDS011;10810;48.270;9.996;2023-02-20T05:59:50;4.27;;;1.57;;
21301;SDS011;10810;48.270;9.996;2023-02-20T06:02:17;4.47;;;1.73;;
21301;SDS011;10810;48.270;9.996;2023-02-20T06:04:48;6.10;;;1.83;;
21301;SDS011;10810;48.270;9.996;2023-02-20T06:07:32;3.57;;;1.87;;
21301;SDS011;10810;48.270;9.996;2023-02-20T06:10:01;3.57;;;1.60;;
21301;SDS011;10810;48.270;9.996;2023-02-20T06:12:29;6.37;;;1.97;;
21301;SDS011;10810;48.270;9.996;2023-02-20T06:14:56;3.93;;;1.73;;
21301;SDS011;10810;48.270;9.996;2023-02-20T06:17:28;2.93;;;1.53;;
21301;SDS011;10810;48.270;9.996;2023-02-20T06:20:09;6.73;;;1.70;;
21301;SDS011;10810;48.270;9.996;2023-02-20T06:22:56;3.30;;;1.70;;
21301;SDS011;10810;48.270;9.996;2023-02-20T06:25:38;3.50;;;1.43;;
21301;SDS011;10810;48.270;9.996;2023-02-20T06:28:06;3.77;;;1.60;;
21301;SDS011;10810;48.270;9.996;2023-02-20T06:30:35;4.17;;;1.97;;
21301;SDS011;10810;48.270;9.996;2023-02-20T06:33:14;3.77;;;1.77;;
21301;SDS011;10810;48.270;9.996;2023-02-20T06:35:53;6.23;;;1.83;;
21301;SDS011;10810;48.270;9.996;2023-02-20T06:38:23;5.87;;;1.80;;
21301;SDS011;10810;48.270;9.996;2023-02-20T06:40:53;6.27;;;2.53;;
21301;SDS011;10810;48.270;9.996;2023-02-20T06:43:24;6.03;;;1.90;;
21301;SDS011;10810;48.270;9.996;2023-02-20T06:45:52;4.10;;;2.10;;
21301;SDS011;10810;48.270;9.996;2023-02-20T06:48:21;8.30;;;1.90;;
21301;SDS011;10810;48.270;9.996;2023-02-20T06:50:54;4.27;;;1.70;;
21301;SDS011;10810;48.270;9.996;2023-02-20T06:53:29;3.73;;;1.80;;
21301;SDS011;10810;48.270;9.996;2023-02-20T06:56:07;3.23;;;1.87;;
21301;SDS011;10810;48.270;9.996;2023-02-20T06:58:38;4.03;;;1.63;;
21301;SDS011;10810;48.270;9.996;2023-02-20T07:01:26;3.60;;;1.80;;
21301;SDS011;10810;48.270;9.996;2023-02-20T07:03:59;4.10;;;1.63;;
21301;SDS011;10810;48.270;9.996;2023-02-20T07:06:33;4.23;;;1.70;;
21301;SDS011;10810;48.270;9.996;2023-02-20T07:09:15;3.87;;;1.90;;
21301;SDS011;10810;48.270;9.996;2023-02-20T07:11:44;4.53;;;1.83;;
21301;SDS011;10810;48.270;9.996;2023-02-20T07:14:16;3.50;;;1.70;;
21301;SDS011;10810;48.270;9.996;2023-02-20T07:16:54;7.37;;;1.87;;
21301;SDS011;10810;48.270;9.996;2023-02-20T07:19:26;3.93;;;2.10;;
21301;SDS011;10810;48.270;9.996;2023-02-20T07:22:00;5.97;;;1.80;;
21301;SDS011;10810;48.270;9.996;2023-02-20T07:24:38;3.57;;;1.70;;
21301;SDS011;10810;48.270;9.996;2023-02-20T07:27:14;5.30;;;1.97;;
21301;SDS011;10810;48.270;9.996;2023-02-20T07:30:03;4.43;;;1.93;;
21301;SDS011;10810;48.270;9.996;2023-02-20T07:32:33;6.70;;;2.40;;
21301;SDS011;10810;48.270;9.996;2023-02-20T07:35:00;8.07;;;2.17;;
21301;SDS011;10810;48.270;9.996;2023-02-20T07:40:20;5.47;;;2.03;;
21301;SDS011;10810;48.270;9.996;2023-02-20T07:42:52;7.57;;;2.10;;
21301;SDS011;10810;48.270;9.996;2023-02-20T07:45:21;4.13;;;2.00;;
21301;SDS011;10810;48.270;9.996;2023-02-20T07:47:51;9.67;;;2.10;;
21301;SDS011;10810;48.270;9.996;2023-02-20T07:50:28;11.13;;;2.13;;
21301;SDS011;10810;48.270;9.996;2023-02-20T07:53:04;5.13;;;2.17;;
21301;SDS011;10810;48.270;9.996;2023-02-20T07:55:34;4.37;;;1.80;;
21301;SDS011;10810;48.270;9.996;2023-02-20T07:58:01;4.00;;;1.83;;
21301;SDS011;10810;48.270;9.996;2023-02-20T08:00:46;4.57;;;2.03;;
21301;SDS011;10810;48.270;9.996;2023-02-20T08:03:18;5.77;;;2.33;;
21301;SDS011;10810;48.270;9.996;2023-02-20T08:05:45;5.47;;;2.53;;
21301;SDS011;10810;48.270;9.996;2023-02-20T08:11:16;8.20;;;2.23;;
21301;SDS011;10810;48.270;9.996;2023-02-20T08:13:47;3.47;;;1.87;;
21301;SDS011;10810;48.270;9.996;2023-02-20T08:16:34;7.63;;;2.30;;
21301;SDS011;10810;48.270;9.996;2023-02-20T08:19:04;3.93;;;1.93;;
21301;SDS011;10810;48.270;9.996;2023-02-20T08:21:38;6.97;;;2.07;;
21301;SDS011;10810;48.270;9.996;2023-02-20T08:27:17;8.87;;;2.30;;
21301;SDS011;10810;48.270;9.996;2023-02-20T08:30:12;7.17;;;2.13;;
21301;SDS011;10810;48.270;9.996;2023-02-20T08:33:00;5.40;;;2.10;;
21301;SDS011;10810;48.270;9.996;2023-02-20T08:35:30;5.87;;;2.13;;
21301;SDS011;10810;48.270;9.996;2023-02-20T08:38:28;6.57;;;1.97;;
21301;SDS011;10810;48.270;9.996;2023-02-20T08:40:58;5.03;;;2.10;;
21301;SDS011;10810;48.270;9.996;2023-02-20T08:43:29;3.80;;;2.00;;
21301;SDS011;10810;48.270;9.996;2023-02-20T08:45:59;4.70;;;1.90;;
21301;SDS011;10810;48.270;9.996;2023-02-20T08:48:26;4.50;;;2.00;;
21301;SDS011;10810;48.270;9.996;2023-02-20T08:50:53;8.67;;;2.27;;
21301;SDS011;10810;48.270;9.996;2023-02-20T08:53:23;7.50;;;2.33;;
21301;SDS011;10810;48.270;9.996;2023-02-20T08:55:51;8.10;;;2.27;;
21301;SDS011;10810;48.270;9.996;2023-02-20T08:58:21;5.20;;;2.20;;
21301;SDS011;10810;48.270;9.996;2023-02-20T09:00:55;8.03;;;2.63;;
21301;SDS011;10810;48.270;9.996;2023-02-20T09:03:24;7.50;;;2.20;;
21301;SDS011;10810;48.270;9.996;2023-02-20T09:05:53;8.20;;;2.37;;
21301;SDS011;10810;48.270;9.996;2023-02-20T09:08:27;5.60;;;2.40;;
21301;SDS011;10810;48.270;9.996;2023-02-20T09:11:14;6.83;;;2.57;;
21301;SDS011;10810;48.270;9.996;2023-02-20T09:16:46;4.63;;;2.17;;
21301;SDS011;10810;48.270;9.996;2023-02-20T09:19:23;4.43;;;2.23;;
21301;SDS011;10810;48.270;9.996;2023-02-20T09:22:05;6.90;;;2.40;;
21301;SDS011;10810;48.270;9.996;2023-02-20T09:24:36;6.93;;;1.93;;
21301;SDS011;10810;48.270;9.996;2023-02-20T09:27:06;6.20;;;2.10;;
21301;SDS011;10810;48.270;9.996;2023-02-20T09:29:36;5.83;;;2.40;;
21301;SDS011;10810;48.270;9.996;2023-02-20T09:35:06;7.63;;;2.43;;
21301;SDS011;10810;48.270;9.996;2023-02-20T09:38:14;4.40;;;1.83;;
21301;SDS011;10810;48.270;9.996;2023-02-20T09:44:24;4.87;;;1.90;;
21301;SDS011;10810;48.270;9.996;2023-02-20T09:54:23;7.23;;;2.20;;
21301;SDS011;10810;48.270;9.996;2023-02-20T10:03:05;5.53;;;1.90;;
21301;SDS011;10810;48.270;9.996;2023-02-20T10:11:45;4.17;;;1.97;;
21301;SDS011;10810;48.270;9.996;2023-02-20T10:14:29;6.27;;;1.90;;
21301;SDS011;10810;48.270;9.996;2023-02-20T10:17:20;4.83;;;1.80;;
21301;SDS011;10810;48.270;9.996;2023-02-20T10:19:55;5.50;;;1.60;;
21301;SDS011;10810;48.270;9.996;2023-02-20T10:22:29;4.30;;;1.90;;
21301;SDS011;10810;48.270;9.996;2023-02-20T10:25:12;5.70;;;2.13;;
21301;SDS011;10810;48.270;9.996;2023-02-20T10:28:08;3.90;;;1.67;;
21301;SDS011;10810;48.270;9.996;2023-02-20T10:33:56;5.40;;;1.97;;
21301;SDS011;10810;48.270;9.996;2023-02-20T10:36:33;6.87;;;2.10;;
21301;SDS011;10810;48.270;9.996;2023-02-20T10:39:47;4.17;;;1.60;;
21301;SDS011;10810;48.270;9.996;2023-02-20T10:42:09;6.90;;;1.93;;
21301;SDS011;10810;48.270;9.996;2023-02-20T10:48:03;4.13;;;1.87;;
21301;SDS011;10810;48.270;9.996;2023-02-20T10:53:20;3.47;;;1.77;;
21301;SDS011;10810;48.270;9.996;2023-02-20T10:55:33;4.60;;;1.80;;
21301;SDS011;10810;48.270;9.996;2023-02-20T10:57:59;3.67;;;1.80;;
21301;SDS011;10810;48.270;9.996;2023-02-20T11:01:07;3.90;;;1.83;;
21301;SDS011;10810;48.270;9.996;2023-02-20T11:03:56;4.00;;;1.63;;
21301;SDS011;10810;48.270;9.996;2023-02-20T11:06:49;3.83;;;1.77;;
21301;SDS011;10810;48.270;9.996;2023-02-20T11:11:34;4.10;;;1.57;;
21301;SDS011;10810;48.270;9.996;2023-02-20T11:12:29;3.57;;;1.80;;
21301;SDS011;10810;48.270;9.996;2023-02-20T11:18:29;3.73;;;1.60;;
21301;SDS011;10810;48.270;9.996;2023-02-20T11:21:34;4.77;;;1.60;;
21301;SDS011;10810;48.270;9.996;2023-02-20T11:24:23;4.17;;;1.57;;
21301;SDS011;10810;48.270;9.996;2023-02-20T11:26:56;4.93;;;1.90;;
21301;SDS011;10810;48.270;9.996;2023-02-20T11:29:32;4.33;;;1.43;;
21301;SDS011;10810;48.270;9.996;2023-02-20T11:32:32;4.10;;;1.70;;
21301;SDS011;10810;48.270;9.996;2023-02-20T11:35:23;4.50;;;1.67;;
21301;SDS011;10810;48.270;9.996;2023-02-20T11:41:23;2.83;;;1.37;;
21301;SDS011;10810;48.270;9.996;2023-02-20T11:44:15;2.87;;;1.43;;
21301;SDS011;10810;48.270;9.996;2023-02-20T11:50:07;4.03;;;1.60;;
21301;SDS011;10810;48.270;9.996;2023-02-20T11:52:57;6.67;;;1.80;;
21301;SDS011;10810;48.270;9.996;2023-02-20T11:55:37;3.57;;;1.50;;
21301;SDS011;10810;48.270;9.996;2023-02-20T11:58:18;3.60;;;1.60;;
21301;SDS011;10810;48.270;9.996;2023-02-20T12:01:26;4.23;;;1.80;;
21301;SDS011;10810;48.270;9.996;2023-02-20T12:04:16;4.77;;;1.83;;
21301;SDS011;10810;48.270;9.996;2023-02-20T12:06:47;3.80;;;1.60;;
21301;SDS011;10810;48.270;9.996;2023-02-20T12:09:55;2.80;;;1.50;;
21301;SDS011;10810;48.270;9.996;2023-02-20T12:12:29;3.07;;;1.60;;
21301;SDS011;10810;48.270;9.996;2023-02-20T12:15:16;2.70;;;1.50;;
21301;SDS011;10810;48.270;9.996;2023-02-20T12:17:56;2.70;;;1.43;;
21301;SDS011;10810;48.270;9.996;2023-02-20T12:20:48;3.13;;;1.47;;
21301;SDS011;10810;48.270;9.996;2023-02-20T12:23:34;3.87;;;1.60;;
21301;SDS011;10810;48.270;9.996;2023-02-20T12:26:24;4.67;;;1.70;;
21301;SDS011;10810;48.270;9.996;2023-02-20T12:29:15;4.07;;;1.60;;
21301;SDS011;10810;48.270;9.996;2023-02-20T12:32:02;3.57;;;1.50;;
21301;SDS011;10810;48.270;9.996;2023-02-20T12:35:05;5.23;;;1.40;;
21301;SDS011;10810;48.270;9.996;2023-02-20T12:38:02;3.80;;;1.60;;
21301;SDS011;10810;48.270;9.996;2023-02-20T12:41:01;3.40;;;1.50;;
21301;SDS011;10810;48.270;9.996;2023-02-20T12:43:46;3.77;;;1.50;;
21301;SDS011;10810;48.270;9.996;2023-02-20T12:46:30;4.03;;;1.67;;
21301;SDS011;10810;48.270;9.996;2023-02-20T12:49:37;5.63;;;1.53;;
21301;SDS011;10810;48.270;9.996;2023-02-20T12:52:30;2.77;;;1.33;;
21301;SDS011;10810;48.270;9.996;2023-02-20T12:55:26;3.10;;;1.20;;
21301;SDS011;10810;48.270;9.996;2023-02-20T12:58:10;3.13;;;1.43;;
21301;SDS011;10810;48.270;9.996;2023-02-20T13:00:59;3.70;;;1.20;;
21301;SDS011;10810;48.270;9.996;2023-02-20T13:04:04;3.50;;;1.20;;
21301;SDS011;10810;48.270;9.996;2023-02-20T13:06:59;2.17;;;1.20;;
21301;SDS011;10810;48.270;9.996;2023-02-20T13:09:38;4.13;;;1.30;;
21301;SDS011;10810;48.270;9.996;2023-02-20T13:12:33;3.93;;;1.17;;
21301;SDS011;10810;48.270;9.996;2023-02-20T13:15:15;1.83;;;1.20;;
21301;SDS011;10810;48.270;9.996;2023-02-20T13:17:55;2.17;;;1.00;;
21301;SDS011;10810;48.270;9.996;2023-02-20T13:20:45;3.47;;;1.10;;
21301;SDS011;10810;48.270;9.996;2023-02-20T13:23:27;1.97;;;0.97;;
21301;SDS011;10810;48.270;9.996;2023-02-20T13:28:06;1.67;;;1.00;;
21301;SDS011;10810;48.270;9.996;2023-02-20T13:29:21;3.63;;;1.10;;
21301;SDS011;10810;48.270;9.996;2023-02-20T13:32:20;3.40;;;1.03;;
21301;SDS011;10810;48.270;9.996;2023-02-20T13:38:10;1.93;;;1.00;;
21301;SDS011;10810;48.270;9.996;2023-02-20T13:40:57;2.43;;;0.90;;
21301;SDS011;10810;48.270;9.996;2023-02-20T13:43:34;3.33;;;1.00;;
21301;SDS011;10810;48.270;9.996;2023-02-20T13:52:35;1.40;;;0.80;;
21301;SDS011;10810;48.270;9.996;2023-02-20T13:55:22;0.97;;;0.80;;
21301;SDS011;10810;48.270;9.996;2023-02-20T13:58:09;1.60;;;0.90;;
21301;SDS011;10810;48.270;9.996;2023-02-20T14:00:45;1.57;;;0.67;;
21301;SDS011;10810;48.270;9.996;2023-02-20T14:03:35;2.07;;;0.90;;
21301;SDS011;10810;48.270;9.996;2023-02-20T14:06:15;2.57;;;0.77;;
21301;SDS011;10810;48.270;9.996;2023-02-20T14:09:15;3.97;;;1.00;;
21301;SDS011;10810;48.270;9.996;2023-02-20T14:12:24;0.47;;;0.43;;
21301;SDS011;10810;48.270;9.996;2023-02-20T14:14:54;2.07;;;0.80;;
21301;SDS011;10810;48.270;9.996;2023-02-20T14:17:35;3.97;;;0.80;;
21301;SDS011;10810;48.270;9.996;2023-02-20T14:20:11;2.30;;;0.90;;
21301;SDS011;10810;48.270;9.996;2023-02-20T14:22:49;2.23;;;0.80;;
21301;SDS011;10810;48.270;9.996;2023-02-20T14:25:36;1.40;;;0.87;;
21301;SDS011;10810;48.270;9.996;2023-02-20T14:28:06;2.90;;;1.10;;
21301;SDS011;10810;48.270;9.996;2023-02-20T14:30:53;1.40;;;0.80;;
21301;SDS011;10810;48.270;9.996;2023-02-20T14:33:45;1.13;;;0.70;;
21301;SDS011;10810;48.270;9.996;2023-02-20T14:36:34;2.33;;;0.80;;
21301;SDS011;10810;48.270;9.996;2023-02-20T14:39:38;1.20;;;0.80;;
21301;SDS011;10810;48.270;9.996;2023-02-20T14:45:19;1.17;;;0.70;;
21301;SDS011;10810;48.270;9.996;2023-02-20T14:47:59;2.07;;;0.80;;
21301;SDS011;10810;48.270;9.996;2023-02-20T14:52:28;4.13;;;1.00;;
21301;SDS011;10810;48.270;9.996;2023-02-20T14:53:36;2.10;;;0.70;;
21301;SDS011;10810;48.270;9.996;2023-02-20T14:56:11;1.80;;;0.90;;
21301;SDS011;10810;48.270;9.996;2023-02-20T14:58:39;2.60;;;0.80;;
21301;SDS011;10810;48.270;9.996;2023-02-20T15:01:15;1.83;;;0.90;;
21301;SDS011;10810;48.270;9.996;2023-02-20T15:03:54;0.80;;;0.70;;
21301;SDS011;10810;48.270;9.996;2023-02-20T15:06:25;1.40;;;0.93;;
21301;SDS011;10810;48.270;9.996;2023-02-20T15:08:56;1.50;;;0.90;;
21301;SDS011;10810;48.270;9.996;2023-02-20T15:11:43;3.87;;;1.00;;
21301;SDS011;10810;48.270;9.996;2023-02-20T15:14:39;2.20;;;0.90;;
21301;SDS011;10810;48.270;9.996;2023-02-20T15:17:20;1.60;;;0.80;;
21301;SDS011;10810;48.270;9.996;2023-02-20T15:19:52;2.97;;;0.90;;
21301;SDS011;10810;48.270;9.996;2023-02-20T15:22:22;3.40;;;1.17;;
21301;SDS011;10810;48.270;9.996;2023-02-20T15:25:23;2.20;;;0.87;;
21301;SDS011;10810;48.270;9.996;2023-02-20T15:28:23;4.20;;;0.93;;
21301;SDS011;10810;48.270;9.996;2023-02-20T15:31:02;1.27;;;0.80;;
21301;SDS011;10810;48.270;9.996;2023-02-20T15:33:54;2.00;;;1.00;;
21301;SDS011;10810;48.270;9.996;2023-02-20T15:36:36;2.03;;;0.83;;
21301;SDS011;10810;48.270;9.996;2023-02-20T15:39:24;1.70;;;0.90;;
21301;SDS011;10810;48.270;9.996;2023-02-20T15:42:14;5.87;;;1.87;;
21301;SDS011;10810;48.270;9.996;2023-02-20T15:44:53;4.23;;;1.10;;
21301;SDS011;10810;48.270;9.996;2023-02-20T15:47:28;2.87;;;1.10;;
21301;SDS011;10810;48.270;9.996;2023-02-20T15:52:51;3.40;;;1.20;;
21301;SDS011;10810;48.270;9.996;2023-02-20T15:55:22;3.27;;;0.93;;
21301;SDS011;10810;48.270;9.996;2023-02-20T16:01:23;2.13;;;1.00;;
21301;SDS011;10810;48.270;9.996;2023-02-20T16:04:05;2.20;;;0.97;;
21301;SDS011;10810;48.270;9.996;2023-02-20T16:06:42;2.57;;;1.00;;
21301;SDS011;10810;48.270;9.996;2023-02-20T16:12:36;1.50;;;1.10;;
21301;SDS011;10810;48.270;9.996;2023-02-20T16:15:04;2.47;;;1.17;;
21301;SDS011;10810;48.270;9.996;2023-02-20T16:17:32;3.43;;;1.10;;
21301;SDS011;10810;48.270;9.996;2023-02-20T16:20:21;3.37;;;1.17;;
21301;SDS011;10810;48.270;9.996;2023-02-20T16:26:00;5.20;;;1.20;;
21301;SDS011;10810;48.270;9.996;2023-02-20T16:28:31;2.23;;;1.17;;
21301;SDS011;10810;48.270;9.996;2023-02-20T16:31:16;1.80;;;0.87;;
21301;SDS011;10810;48.270;9.996;2023-02-20T16:34:22;3.10;;;1.50;;
21301;SDS011;10810;48.270;9.996;2023-02-20T16:37:14;2.60;;;1.17;;
21301;SDS011;10810;48.270;9.996;2023-02-20T16:39:53;1.93;;;1.20;;
21301;SDS011;10810;48.270;9.996;2023-02-20T16:42:39;6.00;;;2.00;;
21301;SDS011;10810;48.270;9.996;2023-02-20T16:45:36;5.03;;;1.70;;
21301;SDS011;10810;48.270;9.996;2023-02-20T16:48:22;3.17;;;1.60;;
21301;SDS011;10810;48.270;9.996;2023-02-20T17:44:08;2.20;;;0.93;;
21301;SDS011;10810;48.270;9.996;2023-02-20T17:47:03;3.30;;;1.20;;
21301;SDS011;10810;48.270;9.996;2023-02-20T17:50:06;1.63;;;1.10;;
21301;SDS011;10810;48.270;9.996;2023-02-20T17:57:04;1.77;;;0.97;;
21301;SDS011;10810;48.270;9.996;2023-02-20T18:00:06;4.70;;;1.30;;
21301;SDS011;10810;48.270;9.996;2023-02-20T18:04:08;5.27;;;1.77;;
21301;SDS011;10810;48.270;9.996;2023-02-20T18:06:58;1.90;;;1.10;;
21301;SDS011;10810;48.270;9.996;2023-02-20T18:13:29;1.80;;;1.00;;
21301;SDS011;10810;48.270;9.996;2023-02-20T18:16:49;4.27;;;1.20;;
21301;SDS011;10810;48.270;9.996;2023-02-20T18:24:06;5.40;;;1.70;;
21301;SDS011;10810;48.270;9.996;2023-02-20T18:31:47;5.80;;;1.80;;
21301;SDS011;10810;48.270;9.996;2023-02-20T18:40:17;7.20;;;1.63;;
21301;SDS011;10810;48.270;9.996;2023-02-20T18:43:30;4.87;;;1.67;;
21301;SDS011;10810;48.270;9.996;2023-02-20T18:46:10;2.83;;;1.30;;
21301;SDS011;10810;48.270;9.996;2023-02-20T19:11:26;3.20;;;1.40;;
21301;SDS011;10810;48.270;9.996;2023-02-20T19:15:00;5.63;;;1.43;;
21301;SDS011;10810;48.270;9.996;2023-02-20T19:17:58;2.47;;;1.30;;
21301;SDS011;10810;48.270;9.996;2023-02-20T19:20:53;4.83;;;0.93;;
21301;SDS011;10810;48.270;9.996;2023-02-20T19:27:00;2.40;;;1.17;;
21301;SDS011;10810;48.270;9.996;2023-02-20T19:29:41;3.23;;;1.33;;
21301;SDS011;10810;48.270;9.996;2023-02-20T19:33:11;3.37;;;1.83;;
21301;SDS011;10810;48.270;9.996;2023-02-20T19:37:11;3.53;;;1.73;;
21301;SDS011;10810;48.270;9.996;2023-02-20T20:17:12;4.40;;;1.70;;
21301;SDS011;10810;48.270;9.996;2023-02-20T20:49:32;7.80;;;2.60;;
21301;SDS011;10810;48.270;9.996;2023-02-20T20:52:01;9.93;;;2.53;;